Time;durP1;ratioP1;P1;durP2;ratioP2;P2;SDS_P1;SDS_P2;PMS_P1;PMS_P2;Temp;Humidity;BMP_temperature;BMP_pressure;BME280_temperature;BME280_humidity;BME280_pressure;Samples;Min_cycle;Max_cycle;Signal;HPM_P1;HPM_P2
2022/04/08 00:00:08;;;;;;;16.77;0.70;;;6.20;99.90;;;;;;5035574;28;20120;-49
2022/04/08 00:02:38;;;;;;;8.18;0.95;;;6.20;99.90;;;;;;5050103;28;20094;-49
2022/04/08 00:05:05;;;;;;;9.18;0.47;;;6.20;99.90;;;;;;5035912;28;20453;-50
2022/04/08 00:07:31;;;;;;;10.23;0.95;;;6.20;99.90;;;;;;5038647;28;20405;-51
2022/04/08 00:09:56;;;;;;;11.37;1.10;;;6.10;99.90;;;;;;5047913;28;20083;-53
2022/04/08 00:12:22;;;;;;;7.07;0.80;;;6.10;99.90;;;;;;5049507;28;20091;-49
2022/04/08 00:14:48;;;;;;;8.70;0.60;;;6.10;99.90;;;;;;5028831;28;20099;-50
2022/04/08 00:17:13;;;;;;;6.33;0.50;;;6.10;99.90;;;;;;5035413;28;20544;-50
2022/04/08 00:19:39;;;;;;;11.77;0.80;;;6.00;99.90;;;;;;5031748;28;20153;-53
2022/04/08 00:22:05;;;;;;;9.57;1.20;;;6.00;99.90;;;;;;5036825;28;20066;-52
2022/04/08 00:24:31;;;;;;;9.52;0.93;;;6.00;99.90;;;;;;5039935;28;20049;-53
2022/04/08 00:26:57;;;;;;;4.53;0.60;;;6.00;99.90;;;;;;5045627;28;20044;-49
2022/04/08 00:29:22;;;;;;;9.87;0.53;;;6.00;99.90;;;;;;5036887;28;20120;-50
2022/04/08 00:31:50;;;;;;;13.67;1.03;;;6.00;99.90;;;;;;5034387;28;20429;-50
2022/04/08 00:34:16;;;;;;;13.85;2.75;;;6.00;99.90;;;;;;5046948;28;20045;-53
2022/04/08 00:36:41;;;;;;;6.32;0.50;;;6.00;99.90;;;;;;5042452;28;20647;-53
2022/04/08 00:39:11;;;;;;;2.83;0.43;;;6.00;99.90;;;;;;5033081;28;20041;-53
2022/04/08 00:41:37;;;;;;;7.43;0.68;;;6.00;99.90;;;;;;5033527;28;20060;-50
2022/04/08 00:44:03;;;;;;;17.52;1.60;;;5.90;99.90;;;;;;5052060;28;20040;-50
2022/04/08 00:46:29;;;;;;;3.65;0.50;;;5.90;99.90;;;;;;5052244;28;20167;-50
2022/04/08 00:48:54;;;;;;;5.57;0.60;;;5.90;99.90;;;;;;5037298;28;20538;-50
2022/04/08 00:51:21;;;;;;;6.80;1.13;;;5.90;99.90;;;;;;5032927;28;20060;-53
2022/04/08 00:53:47;;;;;;;6.95;0.75;;;5.90;99.90;;;;;;5036750;28;20056;-51
2022/04/08 00:56:13;;;;;;;6.15;0.30;;;5.90;99.90;;;;;;5049682;28;20029;-50
2022/04/08 00:58:39;;;;;;;5.80;0.73;;;5.90;99.90;;;;;;5052073;28;20552;-49
2022/04/08 01:01:05;;;;;;;4.47;0.50;;;5.90;99.90;;;;;;5045809;28;20091;-49
2022/04/08 01:03:30;;;;;;;3.13;0.20;;;5.80;99.90;;;;;;5046405;28;20045;-52
2022/04/08 01:05:57;;;;;;;4.50;0.47;;;5.80;99.90;;;;;;5040388;28;20351;-51
2022/04/08 01:08:23;;;;;;;4.25;0.45;;;5.80;99.90;;;;;;5039837;28;20129;-52
2022/04/08 01:10:49;;;;;;;3.17;0.20;;;5.70;99.90;;;;;;5050667;28;20281;-51
2022/04/08 01:13:15;;;;;;;0.93;0.20;;;5.70;99.90;;;;;;5050461;28;20280;-49
2022/04/08 01:15:41;;;;;;;6.45;0.55;;;5.50;99.90;;;;;;5051882;28;20041;-49
2022/04/08 01:18:06;;;;;;;4.53;0.20;;;5.50;99.90;;;;;;5045971;28;20495;-53
2022/04/08 01:20:33;;;;;;;0.68;0.35;;;5.40;99.90;;;;;;5032325;28;20399;-51
2022/04/08 01:22:59;;;;;;;;;;;5.40;99.90;;;;;;5037419;28;20037;-54
2022/04/08 01:25:24;;;;;;;5.78;0.10;;;5.40;99.90;;;;;;5049841;28;19978;-49
2022/04/08 01:27:50;;;;;;;7.50;0.50;;;5.40;99.90;;;;;;5034701;28;20048;-52
2022/04/08 01:30:16;;;;;;;3.25;0.30;;;5.30;99.90;;;;;;5052049;28;20466;-53
2022/04/08 01:32:42;;;;;;;1.52;0.30;;;5.40;99.90;;;;;;5040058;28;20045;-52
2022/04/08 01:35:08;;;;;;;3.92;0.75;;;5.40;99.90;;;;;;5050145;28;20041;-53
2022/04/08 01:37:34;;;;;;;4.65;0.30;;;5.30;99.90;;;;;;5048995;28;20131;-53
2022/04/08 01:39:59;;;;;;;3.73;0.67;;;5.30;99.90;;;;;;5044831;28;20687;-51
2022/04/08 01:42:25;;;;;;;5.47;0.30;;;5.30;99.90;;;;;;5051513;28;20044;-51
2022/04/08 01:44:52;;;;;;;4.80;1.08;;;5.30;99.90;;;;;;5045358;28;20491;-49
2022/04/08 01:47:19;;;;;;;2.67;0.80;;;5.20;99.90;;;;;;5040166;28;20084;-50
2022/04/08 01:49:44;;;;;;;8.40;0.65;;;5.20;99.90;;;;;;5031850;28;20407;-51
2022/04/08 01:52:10;;;;;;;5.13;0.30;;;5.10;99.90;;;;;;5032889;28;20034;-50
2022/04/08 01:54:36;;;;;;;4.30;1.13;;;5.10;99.90;;;;;;5031562;28;20521;-52
2022/04/08 01:57:01;;;;;;;5.67;0.40;;;5.10;99.90;;;;;;5045236;28;20150;-51
2022/04/08 01:59:27;;;;;;;3.83;0.73;;;5.10;99.90;;;;;;5034578;28;20565;-49
2022/04/08 02:01:53;;;;;;;5.67;0.30;;;5.10;99.90;;;;;;5032114;28;20114;-49
2022/04/08 02:04:18;;;;;;;9.80;0.40;;;5.00;99.90;;;;;;5039951;28;20123;-49
2022/04/08 02:06:44;;;;;;;6.30;0.50;;;5.00;99.90;;;;;;5049255;28;20280;-49
2022/04/08 02:09:11;;;;;;;6.87;0.40;;;5.00;99.90;;;;;;5047279;28;20045;-51
2022/04/08 02:11:37;;;;;;;7.07;0.40;;;4.90;99.90;;;;;;5031415;28;20049;-49
2022/04/08 02:14:04;;;;;;;6.20;0.60;;;4.90;99.90;;;;;;5044131;28;20041;-49
2022/04/08 02:16:29;;;;;;;2.60;0.20;;;4.80;99.90;;;;;;5048959;28;20033;-49
2022/04/08 02:18:55;;;;;;;4.15;1.25;;;4.70;99.90;;;;;;5050741;28;20039;-48
2022/04/08 02:21:21;;;;;;;3.03;0.68;;;4.60;99.90;;;;;;5047518;28;20029;-49
2022/04/08 02:23:48;;;;;;;7.32;0.85;;;4.50;99.90;;;;;;5032244;28;20064;-49
2022/04/08 02:26:16;;;;;;;5.47;0.50;;;4.40;99.90;;;;;;5040478;28;20033;-49
2022/04/08 02:28:42;;;;;;;4.18;0.75;;;4.30;99.90;;;;;;5040737;28;20088;-49
2022/04/08 02:31:08;;;;;;;2.35;0.50;;;4.20;99.90;;;;;;5047760;28;20054;-49
2022/04/08 02:33:33;;;;;;;4.43;1.53;;;4.10;99.90;;;;;;5038495;28;20516;-50
2022/04/08 02:35:59;;;;;;;10.93;2.40;;;4.00;99.90;;;;;;5029296;28;20044;-52
2022/04/08 02:38:24;;;;;;;5.27;0.50;;;4.00;99.90;;;;;;5047839;28;20074;-49
2022/04/08 02:40:50;;;;;;;8.00;0.60;;;3.90;99.90;;;;;;5036377;28;20042;-49
2022/04/08 02:43:15;;;;;;;7.53;1.07;;;3.90;99.90;;;;;;5044492;28;20120;-50
2022/04/08 02:45:41;;;;;;;6.13;0.40;;;3.90;99.90;;;;;;5049847;28;20073;-50
2022/04/08 02:48:06;;;;;;;7.13;0.73;;;3.90;99.90;;;;;;5039394;28;20033;-50
2022/04/08 02:50:32;;;;;;;6.70;0.60;;;3.90;99.90;;;;;;5035538;28;20037;-49
2022/04/08 02:52:57;;;;;;;6.83;0.70;;;3.90;99.90;;;;;;5050142;28;20283;-50
2022/04/08 02:55:23;;;;;;;8.10;0.70;;;3.90;99.90;;;;;;5037797;28;20183;-52
2022/04/08 02:57:50;;;;;;;7.67;1.33;;;4.00;99.90;;;;;;5035347;28;20079;-52
2022/04/08 03:00:17;;;;;;;8.60;0.65;;;4.00;99.90;;;;;;5046481;28;20053;-50
2022/04/08 03:02:47;;;;;;;12.63;1.05;;;4.10;99.90;;;;;;5044457;28;20407;-50
2022/04/08 03:05:14;;;;;;;7.25;2.60;;;4.10;99.90;;;;;;5040616;28;20494;-48
2022/04/08 03:07:40;;;;;;;3.22;0.40;;;4.20;99.90;;;;;;5049879;28;20032;-49
2022/04/08 03:10:07;;;;;;;5.93;1.50;;;4.30;99.90;;;;;;5032930;28;20105;-53
2022/04/08 03:12:33;;;;;;;3.83;0.40;;;4.20;99.90;;;;;;5030181;28;20052;-50
2022/04/08 03:14:59;;;;;;;4.53;0.32;;;4.20;99.90;;;;;;5045342;28;20049;-49
2022/04/08 03:17:25;;;;;;;8.55;1.40;;;4.10;99.90;;;;;;5044193;28;20076;-51
2022/04/08 03:19:51;;;;;;;5.68;0.88;;;4.10;99.90;;;;;;5045324;28;20037;-53
2022/04/08 03:22:20;;;;;;;3.42;0.93;;;4.00;99.90;;;;;;5036958;28;20038;-51
2022/04/08 03:24:51;;;;;;;6.68;0.35;;;4.00;99.90;;;;;;5030943;28;20041;-49
2022/04/08 03:27:17;;;;;;;2.97;0.40;;;4.00;99.90;;;;;;5045618;28;20086;-51
2022/04/08 03:29:43;;;;;;;7.18;0.52;;;4.00;99.90;;;;;;5049510;28;20036;-51
2022/04/08 03:32:09;;;;;;;7.13;0.50;;;4.00;99.90;;;;;;5033284;28;20445;-51
2022/04/08 03:34:35;;;;;;;2.75;0.57;;;3.90;99.90;;;;;;5041266;28;20059;-52
2022/04/08 03:37:01;;;;;;;4.70;0.63;;;3.90;99.90;;;;;;5046537;28;20494;-50
2022/04/08 03:39:26;;;;;;;10.03;1.70;;;3.90;99.90;;;;;;5048126;28;20114;-49
2022/04/08 03:41:53;;;;;;;3.37;1.00;;;3.90;99.90;;;;;;5048072;28;20059;-51
2022/04/08 03:44:19;;;;;;;6.07;0.60;;;3.90;99.90;;;;;;5039747;28;20299;-52
2022/04/08 03:46:46;;;;;;;5.35;0.50;;;3.90;99.90;;;;;;5034549;28;20045;-48
2022/04/08 03:49:14;;;;;;;4.82;0.40;;;3.90;99.90;;;;;;5028360;28;20049;-49
2022/04/08 03:51:48;;;;;;;10.82;1.20;;;4.00;99.90;;;;;;5049062;28;20036;-49
2022/04/08 03:54:14;;;;;;;8.27;1.17;;;4.00;99.90;;;;;;5040020;28;20073;-50
2022/04/08 03:56:42;;;;;;;12.35;0.88;;;4.00;99.90;;;;;;5041557;28;20072;-51
2022/04/08 03:59:08;;;;;;;7.18;0.70;;;4.00;99.90;;;;;;5048829;28;20033;-49
2022/04/08 04:01:34;;;;;;;6.65;0.57;;;4.00;99.90;;;;;;5044576;28;20506;-50
2022/04/08 04:03:59;;;;;;;6.53;0.57;;;4.00;99.90;;;;;;5032390;28;20088;-50
2022/04/08 04:06:25;;;;;;;8.97;0.70;;;4.10;99.90;;;;;;5050599;28;20424;-49
2022/04/08 04:08:50;;;;;;;13.00;1.00;;;4.10;99.90;;;;;;5042750;28;20079;-49
2022/04/08 04:11:16;;;;;;;15.53;1.77;;;4.10;99.90;;;;;;5050786;28;20053;-50
2022/04/08 04:13:45;;;;;;;6.73;1.17;;;4.10;99.90;;;;;;5040234;28;20448;-50
2022/04/08 04:16:11;;;;;;;12.70;1.38;;;4.10;99.90;;;;;;5044752;28;20049;-49
2022/04/08 04:18:37;;;;;;;10.63;1.00;;;4.10;99.90;;;;;;5034502;28;20075;-49
2022/04/08 04:21:03;;;;;;;10.10;1.83;;;4.10;99.90;;;;;;5033877;28;20039;-49
2022/04/08 04:23:29;;;;;;;12.17;1.40;;;4.10;99.90;;;;;;5036711;28;20033;-50
2022/04/08 04:25:54;;;;;;;8.30;0.87;;;4.10;99.90;;;;;;5034641;28;20483;-53
2022/04/08 04:28:20;;;;;;;14.23;1.10;;;4.10;99.90;;;;;;5037322;28;20299;-52
2022/04/08 04:30:45;;;;;;;12.80;1.10;;;4.10;99.90;;;;;;5033320;28;20039;-49
2022/04/08 04:33:11;;;;;;;17.37;1.43;;;4.10;99.90;;;;;;5033123;28;20120;-49
2022/04/08 04:35:37;;;;;;;6.30;1.70;;;4.10;99.90;;;;;;5049132;28;20118;-52
2022/04/08 04:38:03;;;;;;;12.77;1.17;;;4.00;99.90;;;;;;5052324;28;20037;-50
2022/04/08 04:40:29;;;;;;;10.40;1.33;;;4.10;99.90;;;;;;5051219;28;20127;-50
2022/04/08 04:42:55;;;;;;;7.97;2.37;;;4.00;99.90;;;;;;5050961;28;20478;-49
2022/04/08 04:45:21;;;;;;;7.75;1.02;;;4.00;99.90;;;;;;5035511;28;20111;-52
2022/04/08 04:47:47;;;;;;;11.05;1.35;;;4.00;99.90;;;;;;5049774;28;20485;-50
2022/04/08 04:50:13;;;;;;;8.80;0.80;;;4.00;99.90;;;;;;5047348;28;20029;-49
2022/04/08 04:52:38;;;;;;;6.70;0.80;;;4.00;99.90;;;;;;5032501;28;20033;-53
2022/04/08 04:55:05;;;;;;;9.00;0.80;;;4.00;99.90;;;;;;5041514;28;20045;-51
2022/04/08 04:57:31;;;;;;;3.72;1.02;;;4.10;99.90;;;;;;5052434;28;20043;-49
2022/04/08 04:59:56;;;;;;;7.40;1.00;;;4.00;99.90;;;;;;5033990;28;20049;-49
2022/04/08 05:02:22;;;;;;;6.93;0.80;;;4.00;99.90;;;;;;5050659;28;20467;-55
2022/04/08 05:04:47;;;;;;;4.50;1.07;;;4.00;99.90;;;;;;5045837;28;20041;-49
2022/04/08 05:07:13;;;;;;;8.00;1.33;;;4.00;99.90;;;;;;5036860;28;20037;-51
2022/04/08 05:09:40;;;;;;;5.40;0.93;;;4.00;99.90;;;;;;5051888;28;20090;-51
2022/04/08 05:12:07;;;;;;;4.22;0.88;;;4.00;99.90;;;;;;5034752;28;20112;-49
2022/04/08 05:14:32;;;;;;;13.32;3.40;;;4.00;99.90;;;;;;5047379;28;20045;-49
2022/04/08 05:16:58;;;;;;;5.80;0.77;;;4.10;99.90;;;;;;5050454;28;20510;-51
2022/04/08 05:19:24;;;;;;;11.15;0.93;;;4.10;99.90;;;;;;5035997;28;20121;-51
2022/04/08 05:21:52;;;;;;;10.52;1.63;;;4.10;99.90;;;;;;5032830;28;20037;-49
2022/04/08 05:24:18;;;;;;;5.28;1.08;;;4.10;99.90;;;;;;5031972;28;20049;-49
2022/04/08 05:26:43;;;;;;;4.03;0.82;;;4.10;99.90;;;;;;5034244;28;20025;-51
2022/04/08 05:29:09;;;;;;;6.93;0.97;;;4.10;99.90;;;;;;5043337;28;20040;-51
2022/04/08 05:31:34;;;;;;;6.60;0.87;;;4.10;99.90;;;;;;5036828;28;20116;-50
2022/04/08 05:34:00;;;;;;;5.03;0.80;;;4.10;99.90;;;;;;5046527;28;20072;-51
2022/04/08 05:36:25;;;;;;;4.63;0.80;;;4.10;99.90;;;;;;5050890;28;20076;-49
2022/04/08 05:38:51;;;;;;;2.90;0.70;;;4.20;99.90;;;;;;5032973;28;20049;-49
2022/04/08 05:41:17;;;;;;;3.90;1.20;;;4.20;99.90;;;;;;5031755;28;20124;-51
2022/04/08 05:43:44;;;;;;;4.73;1.00;;;4.20;99.90;;;;;;5044254;28;20041;-50
2022/04/08 05:46:10;;;;;;;5.97;1.02;;;4.30;99.90;;;;;;5039621;28;20402;-51
2022/04/08 05:48:36;;;;;;;7.70;1.17;;;4.30;99.90;;;;;;5031517;28;20038;-53
2022/04/08 05:51:02;;;;;;;12.07;1.53;;;4.30;99.90;;;;;;5032783;28;20033;-51
2022/04/08 05:53:27;;;;;;;3.97;1.10;;;4.30;99.90;;;;;;5032928;28;20047;-53
2022/04/08 05:55:57;;;;;;;7.63;0.80;;;4.20;99.90;;;;;;5032303;28;20346;-49
2022/04/08 05:58:22;;;;;;;6.68;0.63;;;4.20;99.90;;;;;;5040863;28;20045;-50
2022/04/08 06:00:48;;;;;;;4.77;0.60;;;4.10;99.90;;;;;;5051273;28;20047;-48
2022/04/08 06:03:14;;;;;;;2.00;0.50;;;4.00;99.90;;;;;;5035516;28;20048;-50
2022/04/08 06:05:40;;;;;;;3.38;0.45;;;3.90;99.90;;;;;;5039769;28;20041;-52
2022/04/08 06:08:05;;;;;;;2.92;0.52;;;3.80;99.90;;;;;;5049380;28;20098;-51
2022/04/08 06:10:31;;;;;;;2.72;0.45;;;3.80;99.90;;;;;;5051167;28;20041;-51
2022/04/08 06:12:57;;;;;;;2.00;0.40;;;3.80;99.90;;;;;;5047415;28;20503;-48
2022/04/08 06:15:24;;;;;;;7.10;0.50;;;3.80;99.90;;;;;;5033503;28;20279;-50
2022/04/08 06:17:50;;;;;;;2.47;0.77;;;3.80;99.90;;;;;;5031024;28;20075;-49
2022/04/08 06:20:17;;;;;;;4.68;0.95;;;3.80;99.90;;;;;;5041339;28;20490;-51
2022/04/08 06:22:44;;;;;;;4.45;1.05;;;3.80;99.90;;;;;;5049214;28;20482;-49
2022/04/08 06:25:14;;;;;;;;;;;3.80;99.90;;;;;;5043779;28;20084;-49
2022/04/08 06:27:40;;;;;;;6.45;0.50;;;3.90;99.90;;;;;;5039507;28;19921;-51
2022/04/08 06:30:11;;;;;;;1.73;0.63;;;3.80;99.90;;;;;;5032440;28;20495;-49
2022/04/08 06:32:38;;;;;;;2.03;0.32;;;3.70;99.90;;;;;;5035312;28;20043;-50
2022/04/08 06:35:04;;;;;;;5.13;0.50;;;3.60;99.90;;;;;;5046770;28;20061;-50
2022/04/08 06:37:30;;;;;;;2.42;0.40;;;3.50;99.90;;;;;;5031728;28;20510;-51
2022/04/08 06:40:01;;;;;;;2.80;0.30;;;3.40;99.90;;;;;;5040897;28;20075;-49
2022/04/08 06:42:26;;;;;;;3.08;0.70;;;3.40;99.90;;;;;;5050709;28;20679;-50
2022/04/08 06:44:52;;;;;;;1.17;0.67;;;3.30;99.90;;;;;;5038766;28;20033;-49
2022/04/08 06:47:17;;;;;;;1.27;0.43;;;3.20;99.90;;;;;;5045596;28;20037;-49
2022/04/08 06:49:46;;;;;;;1.17;0.40;;;3.10;99.90;;;;;;5041974;28;20090;-51
2022/04/08 06:52:12;;;;;;;6.82;0.43;;;3.10;99.90;;;;;;5030560;28;20041;-49
2022/04/08 06:54:38;;;;;;;1.38;0.65;;;3.10;99.90;;;;;;5034192;28;20036;-49
2022/04/08 06:57:04;;;;;;;0.55;0.30;;;3.10;99.90;;;;;;5036905;28;20112;-49
2022/04/08 06:59:30;;;;;;;0.33;0.20;;;3.10;99.90;;;;;;5042186;28;20033;-50
2022/04/08 07:01:55;;;;;;;0.93;0.40;;;3.10;99.90;;;;;;5045212;28;20041;-51
2022/04/08 07:04:21;;;;;;;1.80;1.07;;;3.20;99.90;;;;;;5047143;28;20543;-52
2022/04/08 07:06:46;;;;;;;1.87;0.40;;;3.30;99.90;;;;;;5044986;28;20422;-50
2022/04/08 07:09:12;;;;;;;1.33;0.30;;;3.50;99.90;;;;;;5040970;28;20029;-50
2022/04/08 07:11:37;;;;;;;1.83;0.40;;;3.60;99.90;;;;;;5050128;28;20544;-49
2022/04/08 07:14:04;;;;;;;1.60;0.40;;;3.70;99.90;;;;;;5033110;28;20041;-50
2022/04/08 07:16:30;;;;;;;1.08;0.30;;;3.70;99.90;;;;;;5030326;28;20045;-50
2022/04/08 07:18:55;;;;;;;0.55;0.30;;;3.80;99.90;;;;;;5039668;28;20405;-51
2022/04/08 07:21:22;;;;;;;2.00;0.40;;;3.90;99.90;;;;;;5036919;28;20045;-52
2022/04/08 07:23:48;;;;;;;4.10;0.43;;;3.90;99.90;;;;;;5037969;28;20498;-49
2022/04/08 07:26:13;;;;;;;5.93;0.63;;;4.00;99.90;;;;;;5046293;28;20110;-50
2022/04/08 07:28:39;;;;;;;2.20;0.40;;;4.10;99.90;;;;;;5044705;28;20303;-49
2022/04/08 07:31:05;;;;;;;0.93;0.52;;;4.30;99.90;;;;;;5049277;28;20044;-49
2022/04/08 07:33:30;;;;;;;4.47;0.60;;;4.40;99.90;;;;;;5048231;28;20109;-51
2022/04/08 07:35:58;;;;;;;0.67;0.30;;;4.60;99.90;;;;;;5040865;28;20041;-52
2022/04/08 07:38:24;;;;;;;4.22;0.47;;;4.70;99.90;;;;;;5034861;28;20499;-51
2022/04/08 07:40:50;;;;;;;1.33;0.30;;;4.80;99.90;;;;;;5048820;28;20120;-52
2022/04/08 07:43:16;;;;;;;4.20;0.50;;;4.90;99.90;;;;;;5052842;28;20057;-53
2022/04/08 07:45:43;;;;;;;2.83;0.63;;;5.00;99.90;;;;;;5038603;28;20079;-54
2022/04/08 07:48:08;;;;;;;3.38;0.40;;;5.20;99.90;;;;;;5043005;28;20063;-53
2022/04/08 07:50:37;;;;;;;2.90;0.40;;;5.30;99.90;;;;;;5044676;28;20083;-50
2022/04/08 07:53:04;;;;;;;2.40;0.77;;;5.40;99.90;;;;;;5034032;28;20196;-51
2022/04/08 07:55:29;;;;;;;3.83;0.40;;;5.40;99.90;;;;;;5047349;28;20048;-53
2022/04/08 07:57:55;;;;;;;1.70;0.50;;;5.40;99.90;;;;;;5052793;28;20041;-55
2022/04/08 08:00:24;;;;;;;2.60;0.50;;;5.50;99.90;;;;;;5042175;28;20128;-52
2022/04/08 08:02:50;;;;;;;2.15;0.43;;;5.60;99.90;;;;;;5044244;28;20034;-50
2022/04/08 08:05:16;;;;;;;2.42;0.40;;;5.60;99.90;;;;;;5043366;28;20037;-54
2022/04/08 08:07:55;;;;;;;1.35;0.50;;;5.60;99.90;;;;;;5033520;28;20542;-51
2022/04/08 08:10:26;;;;;;;4.55;0.93;;;5.70;99.90;;;;;;5034658;28;20061;-51
2022/04/08 08:12:53;;;;;;;4.80;0.80;;;5.70;99.90;;;;;;5034236;28;20041;-51
2022/04/08 08:15:20;;;;;;;4.57;0.65;;;5.70;99.90;;;;;;5047965;28;20041;-51
2022/04/08 08:17:47;;;;;;;1.50;0.90;;;5.90;99.90;;;;;;5033394;28;20414;-52
2022/04/08 08:20:14;;;;;;;3.25;0.90;;;5.90;99.90;;;;;;5050416;28;20040;-49
2022/04/08 08:22:41;;;;;;;6.25;0.90;;;6.00;99.90;;;;;;5042040;28;20060;-51
2022/04/08 08:25:07;;;;;;;6.35;1.40;;;6.00;99.90;;;;;;5041284;28;20045;-50
2022/04/08 08:27:42;;;;;;;2.60;1.20;;;6.00;99.90;;;;;;5044488;28;20071;-49
2022/04/08 08:30:12;;;;;;;5.93;1.58;;;5.90;99.90;;;;;;5051331;28;20049;-52
2022/04/08 08:32:39;;;;;;;7.75;2.08;;;5.80;99.90;;;;;;5050520;28;20050;-50
2022/04/08 08:35:08;;;;;;;6.50;1.58;;;5.70;99.90;;;;;;5042632;28;20033;-49
2022/04/08 08:37:35;;;;;;;3.00;1.10;;;5.60;99.90;;;;;;5036784;28;20398;-49
2022/04/08 08:40:01;;;;;;;4.45;1.58;;;5.50;99.90;;;;;;5036019;28;20045;-49
2022/04/08 08:42:28;;;;;;;8.27;1.77;;;5.50;99.90;;;;;;5051466;28;20045;-49
2022/04/08 08:44:54;;;;;;;12.82;2.42;;;5.40;99.90;;;;;;5037768;28;20099;-52
2022/04/08 08:47:20;;;;;;;6.37;2.17;;;5.40;99.90;;;;;;5032318;28;20523;-51
2022/04/08 08:49:51;;;;;;;5.38;2.13;;;5.40;99.90;;;;;;5048537;28;20120;-51
2022/04/08 08:52:21;;;;;;;5.80;1.92;;;5.40;99.90;;;;;;5050392;28;20110;-49
2022/04/08 08:54:47;;;;;;;4.93;2.70;;;5.50;99.90;;;;;;5052079;28;20102;-50
2022/04/08 08:57:19;;;;;;;6.13;2.92;;;5.50;99.90;;;;;;5034085;28;20049;-50
2022/04/08 08:59:45;;;;;;;5.40;2.45;;;5.60;99.90;;;;;;5042567;28;20426;-49
2022/04/08 09:02:16;;;;;;;6.53;2.88;;;5.50;99.90;;;;;;5050709;28;20125;-49
2022/04/08 09:04:42;;;;;;;7.50;3.17;;;5.60;99.90;;;;;;5051911;28;20177;-51
2022/04/08 09:07:19;;;;;;;8.30;3.33;;;5.60;99.90;;;;;;5042782;28;20086;-49
2022/04/08 09:09:51;;;;;;;8.07;2.30;;;5.70;99.90;;;;;;5032453;28;20288;-50
2022/04/08 09:12:17;;;;;;;5.57;1.83;;;5.70;99.90;;;;;;5033722;28;20446;-52
2022/04/08 09:14:51;;;;;;;4.55;1.05;;;5.70;99.90;;;;;;5032512;28;20069;-53
2022/04/08 09:17:21;;;;;;;2.63;1.02;;;5.60;99.90;;;;;;5032368;28;20041;-49
2022/04/08 09:19:51;;;;;;;7.43;1.52;;;5.50;99.90;;;;;;5047431;28;20087;-49
2022/04/08 09:22:18;;;;;;;3.20;1.10;;;5.40;99.90;;;;;;5040415;28;20038;-52
2022/04/08 09:24:44;;;;;;;3.90;0.68;;;5.30;99.90;;;;;;5037997;28;20029;-49
2022/04/08 09:27:11;;;;;;;3.40;0.63;;;5.30;99.90;;;;;;5050054;28;20036;-49
2022/04/08 09:29:36;;;;;;;;;;;5.30;99.90;;;;;;5036176;28;20041;-50
2022/04/08 09:32:10;;;;;;;3.40;0.95;;;5.30;99.90;;;;;;5039397;28;20465;-53
2022/04/08 09:34:37;;;;;;;8.80;0.98;;;5.40;99.90;;;;;;5051284;28;20083;-53
2022/04/08 09:37:15;;;;;;;4.03;0.75;;;5.60;99.90;;;;;;5050488;28;20045;-50
2022/04/08 09:40:00;;;;;;;2.92;0.65;;;5.90;99.90;;;;;;5050454;28;20497;-53
2022/04/08 09:42:46;;;;;;;5.00;0.80;;;6.30;99.90;;;;;;5051533;28;20059;-51
2022/04/08 09:45:13;;;;;;;6.95;1.00;;;6.60;99.90;;;;;;5051510;28;20043;-50
2022/04/08 09:47:39;;;;;;;2.85;0.57;;;6.90;99.90;;;;;;5051470;28;20076;-51
2022/04/08 09:50:07;;;;;;;9.73;1.67;;;7.10;99.90;;;;;;5051481;28;20072;-51
2022/04/08 09:52:33;;;;;;;8.95;2.13;;;7.30;99.90;;;;;;5050084;28;20045;-54
2022/04/08 09:55:03;;;;;;;5.07;1.55;;;7.60;99.90;;;;;;5051061;28;20128;-50
2022/04/08 09:57:36;;;;;;;8.35;2.08;;;7.80;99.90;;;;;;5051118;28;20052;-51
2022/04/08 10:00:03;;;;;;;12.45;3.17;;;8.00;99.90;;;;;;5051092;28;20065;-54
2022/04/08 10:02:29;;;;;;;11.80;1.98;;;8.10;99.90;;;;;;5051476;28;20040;-52
2022/04/08 10:04:55;;;;;;;13.90;2.13;;;8.20;99.90;;;;;;5051001;28;20115;-54
2022/04/08 10:07:22;;;;;;;8.30;1.80;;;8.20;99.90;;;;;;5050593;28;20120;-51
2022/04/08 10:10:06;;;;;;;10.00;2.72;;;8.30;99.90;;;;;;5051485;28;20043;-54
2022/04/08 10:13:11;;;;;;;12.68;3.60;;;8.40;99.90;;;;;;5051190;28;20041;-52
2022/04/08 10:15:39;;;;;;;8.98;1.92;;;8.50;99.90;;;;;;5049415;28;20052;-54
2022/04/08 10:18:06;;;;;;;5.55;2.03;;;8.70;99.90;;;;;;5051008;28;20091;-52
2022/04/08 10:20:33;;;;;;;10.00;2.05;;;8.80;99.90;;;;;;5051325;28;20102;-50
2022/04/08 10:23:10;;;;;;;7.47;2.05;;;8.80;99.90;;;;;;5049598;28;20041;-50
2022/04/08 10:25:40;;;;;;;6.82;2.00;;;8.80;99.90;;;;;;5050571;28;20037;-51
2022/04/08 10:28:07;;;;;;;10.95;2.97;;;8.90;99.90;;;;;;5050286;28;20488;-50
2022/04/08 10:30:45;;;;;;;7.20;1.17;;;9.00;99.90;;;;;;5051159;28;20391;-52
2022/04/08 10:33:13;;;;;;;6.80;0.60;;;9.00;99.90;;;;;;5050412;28;20044;-50
2022/04/08 10:35:50;;;;;;;5.93;0.93;;;9.00;99.90;;;;;;5050550;28;20044;-52
2022/04/08 10:38:16;;;;;;;3.92;0.82;;;9.00;99.90;;;;;;5050968;28;20052;-50
2022/04/08 10:40:51;;;;;;;6.60;1.27;;;9.10;99.90;;;;;;5050224;28;20116;-53
2022/04/08 10:43:16;;;;;;;4.88;0.65;;;9.00;99.90;;;;;;5050781;28;20044;-50
2022/04/08 10:45:52;;;;;;;7.93;1.07;;;9.10;99.90;;;;;;5050745;28;20478;-50
2022/04/08 10:48:19;;;;;;;8.80;1.13;;;9.10;99.90;;;;;;5050355;28;20287;-50
2022/04/08 10:50:44;;;;;;;6.87;1.10;;;9.20;99.90;;;;;;5050779;28;20047;-50
2022/04/08 10:53:18;;;;;;;5.73;0.73;;;9.30;99.90;;;;;;5050309;28;20029;-51
2022/04/08 10:56:13;;;;;;;1.90;0.32;;;9.40;99.90;;;;;;5050617;28;20036;-54
2022/04/08 10:58:49;;;;;;;5.95;0.40;;;9.50;99.90;;;;;;5050479;28;20498;-52
2022/04/08 11:01:24;;;;;;;4.85;1.13;;;9.60;99.80;;;;;;5050585;28;20049;-51
2022/04/08 11:04:00;;;;;;;5.35;0.80;;;9.60;99.90;;;;;;5050456;28;20072;-52
2022/04/08 11:06:27;;;;;;;5.67;0.80;;;9.60;99.90;;;;;;5050248;28;20095;-51
2022/04/08 11:08:53;;;;;;;7.47;0.73;;;9.60;99.90;;;;;;5050047;28;20040;-50
2022/04/08 11:11:38;;;;;;;7.10;0.82;;;9.60;98.90;;;;;;5050314;28;20053;-51
2022/04/08 11:14:05;;;;;;;6.32;1.05;;;9.60;97.30;;;;;;5049849;28;20671;-50
2022/04/08 11:16:33;;;;;;;4.80;0.77;;;9.60;98.40;;;;;;5050057;28;20457;-51
2022/04/08 11:18:59;;;;;;;4.68;0.85;;;9.50;98.80;;;;;;5050172;28;20044;-52
2022/04/08 11:21:25;;;;;;;2.25;0.60;;;9.40;95.20;;;;;;5050478;28;20048;-51
2022/04/08 11:24:01;;;;;;;6.93;1.02;;;9.30;95.80;;;;;;5050269;28;20040;-52
2022/04/08 11:26:28;;;;;;;8.93;0.70;;;9.10;95.60;;;;;;5049181;28;20099;-50
2022/04/08 11:28:55;;;;;;;8.50;0.70;;;9.10;97.60;;;;;;5048877;28;20037;-53
2022/04/08 11:31:20;;;;;;;4.25;0.90;;;9.00;97.80;;;;;;5050120;28;20179;-50
2022/04/08 11:33:47;;;;;;;5.53;0.80;;;9.10;97.80;;;;;;5050151;28;20490;-51
2022/04/08 11:36:15;;;;;;;6.88;0.80;;;9.10;96.40;;;;;;5049529;28;20029;-51
2022/04/08 11:38:42;;;;;;;7.53;0.95;;;9.10;98.60;;;;;;5049885;28;20065;-53
2022/04/08 11:41:17;;;;;;;5.47;1.42;;;9.10;98.30;;;;;;5049300;28;20069;-51
2022/04/08 11:43:42;;;;;;;6.63;1.02;;;9.10;99.70;;;;;;5050093;28;20037;-52
2022/04/08 11:46:16;;;;;;;8.60;1.67;;;9.10;99.80;;;;;;5049337;28;20183;-52
2022/04/08 11:48:43;;;;;;;13.05;1.50;;;9.20;99.60;;;;;;5049839;28;20460;-51
2022/04/08 11:51:09;;;;;;;4.07;0.50;;;9.20;99.90;;;;;;5050390;28;20041;-53
2022/04/08 11:53:43;;;;;;;6.22;1.40;;;9.30;99.90;;;;;;5049578;28;20052;-52
2022/04/08 11:56:09;;;;;;;7.68;1.17;;;9.40;99.90;;;;;;5049745;28;20470;-54
2022/04/08 11:58:35;;;;;;;4.93;0.98;;;9.40;99.90;;;;;;5049560;28;20115;-55
2022/04/08 12:01:01;;;;;;;4.37;1.00;;;9.60;99.90;;;;;;5049865;28;20033;-50
2022/04/08 12:03:29;;;;;;;4.40;0.60;;;9.70;99.90;;;;;;5048490;28;20361;-50
2022/04/08 12:05:55;;;;;;;11.95;1.02;;;9.70;99.90;;;;;;5049454;28;20049;-53
2022/04/08 12:08:22;;;;;;;5.95;0.65;;;9.80;99.90;;;;;;5045745;28;20041;-51
2022/04/08 12:10:53;;;;;;;7.68;0.95;;;9.80;99.90;;;;;;5041517;28;20044;-54
2022/04/08 12:13:21;;;;;;;5.75;1.10;;;9.80;99.90;;;;;;5030458;28;20482;-51
2022/04/08 12:15:49;;;;;;;5.35;1.05;;;9.80;99.90;;;;;;5029407;28;20092;-54
2022/04/08 12:18:29;;;;;;;7.93;0.88;;;9.80;99.90;;;;;;5030222;28;20569;-54
2022/04/08 12:20:57;;;;;;;5.53;0.82;;;9.80;99.90;;;;;;5029908;28;20033;-54
2022/04/08 12:23:24;;;;;;;9.70;1.02;;;9.80;99.90;;;;;;5038839;28;20102;-56
2022/04/08 12:25:58;;;;;;;10.80;1.08;;;9.80;99.90;;;;;;5052936;28;20379;-53
2022/04/08 12:28:32;;;;;;;4.57;1.00;;;9.70;99.90;;;;;;5037336;28;20494;-53
2022/04/08 12:30:57;;;;;;;3.20;0.63;;;9.60;99.90;;;;;;5032991;28;20034;-52
2022/04/08 12:33:23;;;;;;;7.15;0.75;;;9.50;99.90;;;;;;5048525;28;20044;-54
2022/04/08 12:35:49;;;;;;;4.00;0.90;;;9.30;99.90;;;;;;5051794;28;20098;-52
2022/04/08 12:38:21;;;;;;;1.53;0.40;;;9.20;99.90;;;;;;5043508;28;20041;-55
2022/04/08 12:40:47;;;;;;;4.45;0.80;;;9.00;99.90;;;;;;5031724;28;20066;-55
2022/04/08 12:43:13;;;;;;;3.50;0.55;;;8.80;99.90;;;;;;5045006;28;20048;-54
2022/04/08 12:45:39;;;;;;;3.37;0.43;;;8.80;99.90;;;;;;5052522;28;20414;-53
2022/04/08 12:48:06;;;;;;;3.85;0.43;;;8.70;99.90;;;;;;5051013;28;20366;-56
2022/04/08 12:50:32;;;;;;;8.70;0.88;;;8.60;99.90;;;;;;5053009;28;20044;-55
2022/04/08 12:52:58;;;;;;;7.13;1.33;;;8.60;99.90;;;;;;5041210;28;20037;-51
2022/04/08 12:55:24;;;;;;;4.10;0.45;;;8.60;99.90;;;;;;5032672;28;20041;-51
2022/04/08 12:57:50;;;;;;;5.35;0.68;;;8.70;99.90;;;;;;5033369;28;20396;-52